Terminal Aerodrome Forecast
Issued by NWS

Home | Current Version | Previous Version | Text Only | Print | Product List | Glossary Off
Versions: 1 2 3 4 5 6 7 8 9 10 11 12 13 14 15 16 17

000
FTUS43 KEAX 211700
TAFMKC
TAF
KMKC 211723Z 2118/2218 18010KT P6SM OVC018
      TEMPO 2118/2120 6SM -DZ BKN009
     FM220200 17014G23KT P6SM VCSH OVC015
     FM220900 19012G22KT 5SM -RA BR OVC012=

USA.gov is the U.S. government's official web portal to all federal, state and local government web resources and services.